createdAt,value
2022-12-13T00:02:16.444Z,3.20
2022-12-13T00:04:48.422Z,3.17
2022-12-13T00:07:20.703Z,3.17
2022-12-13T00:09:52.552Z,3.15
2022-12-13T00:12:24.797Z,3.14
2022-12-13T00:14:57.006Z,3.17
2022-12-13T00:17:28.896Z,3.17
2022-12-13T00:20:00.954Z,3.16
2022-12-13T00:22:33.101Z,3.22
2022-12-13T00:25:06.095Z,3.18
2022-12-13T00:27:38.040Z,3.17
2022-12-13T00:30:10.414Z,3.18
2022-12-13T00:32:42.376Z,3.21
2022-12-13T00:35:14.946Z,3.22
2022-12-13T00:37:47.387Z,3.21
2022-12-13T00:40:19.414Z,3.21
2022-12-13T00:42:51.509Z,3.21
2022-12-13T00:45:23.389Z,3.21
2022-12-13T00:47:56.007Z,3.21
2022-12-13T00:50:28.295Z,3.22
2022-12-13T00:53:02.637Z,3.25
2022-12-13T00:55:34.619Z,3.24
2022-12-13T00:58:06.493Z,3.25
2022-12-13T01:00:38.399Z,3.24
2022-12-13T01:03:11.959Z,3.26
2022-12-13T01:06:13.839Z,3.27
2022-12-13T01:08:17.981Z,3.29
2022-12-13T01:10:50.043Z,3.29
2022-12-13T01:13:21.997Z,3.31
2022-12-13T01:15:54.036Z,3.32
2022-12-13T01:18:26.012Z,3.32
2022-12-13T01:21:07.238Z,3.31
2022-12-13T01:23:39.753Z,3.33
2022-12-13T01:26:14.718Z,3.37
2022-12-13T01:28:46.873Z,3.32
2022-12-13T01:31:21.110Z,3.33
2022-12-13T01:33:53.226Z,3.32
2022-12-13T01:36:27.733Z,3.35
2022-12-13T01:38:59.514Z,3.36
2022-12-13T01:41:33.322Z,3.35
2022-12-13T01:44:07.800Z,3.33
2022-12-13T01:46:39.787Z,3.34
2022-12-13T01:49:20.233Z,3.35
2022-12-13T01:51:56.955Z,3.36
2022-12-13T01:54:33.411Z,3.38
2022-12-13T01:57:08.626Z,3.37
2022-12-13T01:59:42.279Z,3.38
2022-12-13T02:02:16.198Z,3.38
2022-12-13T02:05:02.990Z,3.39
2022-12-13T02:07:37.753Z,3.38
2022-12-13T02:10:10.852Z,3.40
2022-12-13T02:12:44.362Z,3.40
2022-12-13T02:15:19.086Z,3.43
2022-12-13T02:18:12.220Z,3.42
2022-12-13T02:21:13.945Z,3.42
2022-12-13T02:24:21.648Z,3.41
2022-12-13T02:27:15.585Z,3.43
2022-12-13T02:30:15.688Z,3.43
2022-12-13T02:33:21.475Z,3.43
2022-12-13T02:36:08.409Z,3.44
2022-12-13T02:38:52.717Z,3.47
2022-12-13T02:41:42.297Z,3.45
2022-12-13T02:44:23.199Z,3.46
2022-12-13T02:46:58.484Z,3.46
2022-12-13T02:49:33.198Z,3.45
2022-12-13T02:52:07.497Z,3.46
2022-12-13T02:54:42.785Z,3.43
2022-12-13T02:57:34.058Z,3.41
2022-12-13T03:00:20.907Z,3.41
2022-12-13T03:03:04.636Z,3.39
2022-12-13T03:06:13.968Z,3.41
2022-12-13T03:08:55.096Z,3.42
2022-12-13T03:11:31.692Z,3.42
2022-12-13T03:14:06.619Z,3.38
2022-12-13T03:16:46.984Z,3.37
2022-12-13T03:19:19.921Z,3.34
2022-12-13T03:21:51.824Z,3.35
2022-12-13T03:24:24.124Z,3.34
2022-12-13T03:26:56.362Z,3.35
2022-12-13T03:29:28.473Z,3.35
2022-12-13T03:32:00.498Z,3.36
2022-12-13T03:34:43.715Z,3.36
2022-12-13T03:37:06.418Z,3.39
2022-12-13T03:39:38.353Z,3.38
2022-12-13T03:42:10.716Z,3.35
2022-12-13T03:44:42.756Z,3.34
2022-12-13T03:47:14.757Z,3.35
2022-12-13T03:49:46.648Z,3.36
2022-12-13T03:52:20.598Z,3.35
2022-12-13T03:54:52.782Z,3.34
2022-12-13T03:57:25.105Z,3.36
2022-12-13T03:59:57.458Z,3.36
2022-12-13T04:02:30.423Z,3.35
2022-12-13T04:05:03.188Z,3.34
2022-12-13T04:07:35.149Z,3.36
2022-12-13T04:10:26.070Z,3.36
2022-12-13T04:13:00.660Z,3.33
2022-12-13T04:15:32.823Z,3.36
2022-12-13T04:18:06.916Z,3.37
2022-12-13T04:20:38.982Z,3.41
2022-12-13T04:23:11.269Z,3.35
2022-12-13T04:25:45.028Z,3.30
2022-12-13T04:28:21.572Z,3.30
2022-12-13T04:30:52.958Z,3.32
2022-12-13T04:33:25.553Z,3.35
2022-12-13T04:35:57.555Z,3.35
2022-12-13T04:38:30.006Z,3.34
2022-12-13T04:41:14.379Z,3.37
2022-12-13T04:43:47.842Z,3.39
2022-12-13T04:46:20.780Z,3.41
2022-12-13T04:48:54.007Z,3.42
2022-12-13T04:51:26.820Z,3.43
2022-12-13T04:54:13.037Z,3.44
2022-12-13T04:56:33.266Z,3.45
2022-12-13T04:59:05.745Z,3.47
2022-12-13T05:01:37.984Z,3.47
2022-12-13T05:04:10.040Z,3.49
2022-12-13T05:06:42.203Z,3.49
2022-12-13T05:09:14.100Z,3.54
2022-12-13T05:11:46.326Z,3.57
2022-12-13T05:14:23.177Z,3.57
2022-12-13T05:16:53.575Z,3.59
2022-12-13T05:19:30.396Z,3.60
2022-12-13T05:22:02.475Z,3.61
2022-12-13T05:24:34.517Z,3.65
2022-12-13T05:27:25.293Z,3.67
2022-12-13T05:29:40.725Z,3.66
2022-12-13T05:32:13.433Z,3.68
2022-12-13T05:34:46.514Z,3.68
2022-12-13T05:37:18.839Z,3.69
2022-12-13T05:39:50.982Z,3.69
2022-12-13T05:42:23.130Z,3.69
2022-12-13T05:44:55.218Z,3.70
2022-12-13T05:47:28.034Z,3.71
2022-12-13T05:50:00.609Z,3.73
2022-12-13T05:52:33.679Z,3.74
2022-12-13T05:55:07.317Z,3.74
2022-12-13T05:57:40.690Z,3.75
2022-12-13T06:00:28.268Z,3.79
2022-12-13T06:02:49.173Z,3.79
2022-12-13T06:05:21.700Z,3.82
2022-12-13T06:07:57.469Z,3.86
2022-12-13T06:10:34.431Z,3.85
2022-12-13T06:13:22.135Z,3.87
2022-12-13T06:15:44.593Z,3.87
2022-12-13T06:18:15.832Z,3.87
2022-12-13T06:20:59.565Z,3.87
2022-12-13T06:23:33.269Z,3.90
2022-12-13T06:26:08.716Z,3.89
2022-12-13T06:28:41.221Z,3.93
2022-12-13T06:31:13.295Z,3.98
2022-12-13T06:33:46.057Z,3.96
2022-12-13T06:36:19.091Z,3.97
2022-12-13T06:38:51.095Z,3.99
2022-12-13T06:41:26.471Z,4.01
2022-12-13T06:43:57.329Z,4.03
2022-12-13T06:46:29.759Z,4.07
2022-12-13T06:49:02.029Z,4.07
2022-12-13T06:51:35.719Z,4.11
2022-12-13T06:54:07.991Z,4.17
2022-12-13T06:56:40.044Z,4.14
2022-12-13T06:59:14.060Z,4.14
2022-12-13T07:01:50.411Z,4.15
2022-12-13T07:04:30.356Z,4.16
2022-12-13T07:06:54.343Z,4.17
2022-12-13T07:09:26.566Z,4.20
2022-12-13T07:11:58.546Z,4.20
2022-12-13T07:14:31.126Z,4.21
2022-12-13T07:17:03.978Z,4.23
2022-12-13T07:19:36.442Z,4.26
2022-12-13T07:22:08.972Z,4.29
2022-12-13T07:24:41.041Z,4.30
2022-12-13T07:27:13.515Z,4.34
2022-12-13T07:29:45.737Z,4.34
2022-12-13T07:32:18.908Z,4.36
2022-12-13T07:34:51.601Z,4.40
2022-12-13T07:37:29.969Z,4.39
2022-12-13T07:40:04.382Z,4.41
2022-12-13T07:42:34.542Z,4.42
2022-12-13T07:45:07.476Z,4.43
2022-12-13T07:47:41.193Z,4.45
2022-12-13T07:50:23.923Z,4.45
2022-12-13T07:52:48.617Z,4.46
2022-12-13T07:55:23.270Z,4.66
2022-12-13T07:57:55.846Z,4.51
2022-12-13T08:00:27.984Z,4.52
2022-12-13T08:03:00.282Z,4.53
2022-12-13T08:05:38.799Z,4.53
2022-12-13T08:08:07.524Z,4.55
2022-12-13T08:10:39.429Z,4.72
2022-12-13T08:13:11.876Z,4.57
2022-12-13T08:15:44.235Z,4.56
2022-12-13T08:18:16.228Z,4.58
2022-12-13T08:20:48.348Z,4.60
2022-12-13T08:23:21.238Z,4.56
2022-12-13T08:25:56.931Z,4.50
2022-12-13T08:28:33.741Z,4.49
2022-12-13T08:31:15.147Z,4.47
2022-12-13T08:33:48.817Z,4.48
2022-12-13T08:36:23.314Z,4.52
2022-12-13T08:38:57.757Z,4.52
2022-12-13T08:41:30.660Z,4.51
2022-12-13T08:44:03.072Z,4.65
2022-12-13T08:46:35.365Z,4.51
2022-12-13T08:49:07.423Z,4.50
2022-12-13T08:51:40.297Z,4.47
2022-12-13T08:54:12.301Z,4.43
2022-12-13T08:56:44.958Z,4.41
2022-12-13T08:59:17.179Z,4.38
2022-12-13T09:01:53.765Z,4.40
2022-12-13T09:04:32.093Z,4.41
2022-12-13T09:07:01.181Z,4.43
2022-12-13T09:09:32.886Z,4.40
2022-12-13T09:12:10.397Z,4.34
2022-12-13T09:14:45.549Z,4.26
2022-12-13T09:17:14.734Z,4.47
2022-12-13T09:19:46.306Z,4.19
2022-12-13T09:22:33.398Z,4.15
2022-12-13T09:24:54.401Z,4.12
2022-12-13T09:27:30.601Z,4.11
2022-12-13T09:30:03.693Z,4.12
2022-12-13T09:32:36.074Z,4.08
2022-12-13T09:35:09.547Z,4.10
2022-12-13T09:37:45.872Z,4.08
2022-12-13T09:40:27.735Z,4.04
2022-12-13T09:43:21.679Z,4.04
2022-12-13T09:45:43.091Z,4.04
2022-12-13T09:48:13.605Z,4.04
2022-12-13T09:50:57.903Z,4.04
2022-12-13T09:53:22.603Z,4.05
2022-12-13T09:55:55.219Z,4.05
2022-12-13T09:58:33.661Z,4.07
2022-12-13T10:01:07.442Z,4.08
2022-12-13T10:03:42.700Z,4.09
2022-12-13T10:06:22.785Z,4.09
2022-12-13T10:08:57.361Z,4.09
2022-12-13T10:11:32.178Z,4.03
2022-12-13T10:14:11.086Z,4.00
2022-12-13T10:16:46.126Z,3.97
2022-12-13T10:19:41.692Z,3.89
2022-12-13T10:22:16.632Z,3.82
2022-12-13T10:25:12.776Z,3.85
2022-12-13T10:27:48.278Z,3.69
2022-12-13T10:30:28.339Z,3.63
2022-12-13T10:33:03.780Z,3.54
2022-12-13T10:35:40.876Z,3.43
2022-12-13T10:38:18.799Z,3.39
2022-12-13T10:40:51.360Z,3.43
2022-12-13T10:43:28.459Z,3.35
2022-12-13T10:46:04.435Z,3.32
2022-12-13T10:48:42.645Z,3.27
2022-12-13T10:51:17.938Z,3.26
2022-12-13T10:53:59.343Z,3.25
2022-12-13T10:56:40.132Z,3.22
2022-12-13T10:59:29.916Z,3.20
2022-12-13T11:02:05.804Z,3.24
2022-12-13T11:04:37.839Z,3.23
2022-12-13T11:07:24.820Z,3.25
2022-12-13T11:10:04.934Z,3.24
2022-12-13T11:12:34.446Z,3.27
2022-12-13T11:15:08.511Z,3.27
2022-12-13T11:17:41.283Z,3.28
2022-12-13T11:20:24.836Z,3.48
2022-12-13T11:23:02.370Z,3.36
2022-12-13T11:25:46.438Z,3.37
2022-12-13T11:28:26.652Z,3.35
2022-12-13T11:31:01.705Z,3.27
2022-12-13T11:33:58.440Z,3.25
2022-12-13T11:36:36.641Z,3.24
2022-12-13T11:39:34.057Z,3.21
2022-12-13T11:42:25.757Z,3.20
2022-12-13T11:45:27.607Z,3.24
2022-12-13T11:48:08.694Z,3.24
2022-12-13T11:50:47.259Z,3.22
2022-12-13T11:53:25.675Z,3.17
2022-12-13T11:56:25.830Z,3.15
2022-12-13T11:59:26.026Z,3.14
2022-12-13T12:02:05.490Z,3.13
2022-12-13T12:04:59.659Z,3.08
2022-12-13T12:07:48.302Z,3.08
2022-12-13T12:10:18.716Z,3.10
2022-12-13T12:12:53.875Z,3.13
2022-12-13T12:15:28.959Z,3.13
2022-12-13T12:18:02.203Z,3.16
2022-12-13T12:20:43.967Z,3.12
2022-12-13T12:23:48.519Z,3.08
2022-12-13T12:26:23.343Z,3.03
2022-12-13T12:29:12.258Z,3.03
2022-12-13T12:32:13.974Z,3.03
2022-12-13T12:35:17.886Z,3.02
2022-12-13T12:38:26.208Z,3.02
2022-12-13T12:41:18.281Z,3.04
2022-12-13T12:43:53.677Z,3.02
2022-12-13T12:47:01.863Z,3.05
2022-12-13T12:49:42.962Z,3.05
2022-12-13T12:52:35.745Z,3.06
2022-12-13T12:55:19.986Z,3.06
2022-12-13T12:58:09.304Z,3.04
2022-12-13T13:00:46.907Z,3.23
2022-12-13T13:03:23.183Z,3.04
2022-12-13T13:06:20.833Z,2.99
2022-12-13T13:08:56.857Z,2.92
2022-12-13T13:11:32.285Z,2.90
2022-12-13T13:14:24.248Z,2.89
2022-12-13T13:16:57.172Z,2.85
2022-12-13T13:19:35.337Z,2.83
2022-12-13T13:22:21.580Z,2.80
2022-12-13T13:24:45.941Z,2.79
2022-12-13T13:27:28.719Z,2.79
2022-12-13T13:30:09.995Z,2.76
2022-12-13T13:32:42.320Z,2.76
2022-12-13T13:35:39.085Z,2.76
2022-12-13T13:38:20.672Z,2.74
2022-12-13T13:40:53.051Z,2.76
2022-12-13T13:43:33.334Z,2.72
2022-12-13T13:46:13.333Z,2.70
2022-12-13T13:49:00.040Z,2.70
2022-12-13T13:55:01.597Z,2.77
2022-12-13T14:01:01.030Z,2.78
2022-12-13T14:03:55.173Z,2.76
2022-12-13T14:06:51.909Z,2.81
2022-12-13T14:09:29.796Z,2.83
2022-12-13T14:12:21.083Z,2.80
2022-12-13T14:15:04.986Z,2.78
2022-12-13T14:18:05.746Z,2.77
2022-12-13T14:20:46.721Z,2.79
2022-12-13T14:23:22.288Z,2.77
2022-12-13T14:26:00.003Z,2.71
2022-12-13T14:28:54.572Z,2.64
2022-12-13T14:31:29.596Z,2.67
2022-12-13T14:34:04.297Z,2.64
2022-12-13T14:36:39.361Z,2.62
2022-12-13T14:39:25.127Z,2.62
2022-12-13T14:41:56.563Z,2.55
2022-12-13T14:44:32.023Z,2.50
2022-12-13T14:47:09.098Z,2.52
2022-12-13T14:49:48.501Z,2.55
2022-12-13T14:52:31.763Z,2.52
2022-12-13T14:55:04.826Z,2.49
2022-12-13T14:57:37.794Z,2.55
2022-12-13T15:00:28.674Z,2.58
2022-12-13T15:03:03.541Z,2.59
2022-12-13T15:05:38.368Z,2.58
2022-12-13T15:08:12.471Z,2.56
2022-12-13T15:10:59.677Z,2.55
2022-12-13T15:13:43.464Z,2.60
2022-12-13T15:16:29.624Z,2.55
2022-12-13T15:19:30.978Z,2.53
2022-12-13T15:22:04.120Z,2.53
2022-12-13T15:24:44.975Z,2.51
2022-12-13T15:27:21.950Z,2.52
2022-12-13T15:29:55.222Z,2.55
2022-12-13T15:32:27.428Z,2.54
2022-12-13T15:35:00.850Z,2.53
2022-12-13T15:37:34.713Z,2.50
2022-12-13T15:40:12.312Z,2.49
2022-12-13T15:42:48.603Z,2.52
2022-12-13T15:45:30.412Z,2.50
2022-12-13T15:48:01.151Z,2.49
2022-12-13T15:50:36.177Z,2.50
2022-12-13T15:53:23.662Z,2.55
2022-12-13T15:55:56.284Z,2.58
2022-12-13T15:58:36.626Z,2.60
2022-12-13T16:01:10.588Z,2.58
2022-12-13T16:03:47.368Z,2.61
2022-12-13T16:06:22.560Z,2.61
2022-12-13T16:08:58.184Z,2.64
2022-12-13T16:11:39.459Z,2.62
2022-12-13T16:14:34.252Z,2.62
2022-12-13T16:17:22.411Z,2.63
2022-12-13T16:20:07.693Z,2.88
2022-12-13T16:22:34.795Z,2.69
2022-12-13T16:25:07.461Z,2.64
2022-12-13T16:27:40.028Z,2.63
2022-12-13T16:30:14.919Z,2.56
2022-12-13T16:33:18.724Z,2.54
2022-12-13T16:35:22.527Z,2.57
2022-12-13T16:37:59.043Z,2.56
2022-12-13T16:40:33.177Z,2.50
2022-12-13T16:43:08.051Z,2.49
2022-12-13T16:45:45.210Z,2.45
2022-12-13T16:48:18.759Z,2.38
2022-12-13T16:50:57.460Z,2.36
2022-12-13T16:53:26.512Z,2.37
2022-12-13T16:55:59.167Z,2.31
2022-12-13T16:58:31.736Z,2.27
2022-12-13T17:01:05.274Z,2.24
2022-12-13T17:03:37.789Z,2.20
2022-12-13T17:06:15.609Z,2.20
2022-12-13T17:08:47.830Z,2.19
2022-12-13T17:11:19.907Z,2.20
2022-12-13T17:13:52.137Z,2.17
2022-12-13T17:16:24.300Z,2.18
2022-12-13T17:18:57.487Z,2.18
2022-12-13T17:21:30.239Z,2.17
2022-12-13T17:24:03.385Z,2.15
2022-12-13T17:26:37.609Z,2.14
2022-12-13T17:29:17.446Z,2.14
2022-12-13T17:31:44.921Z,2.12
2022-12-13T17:34:17.427Z,2.13
2022-12-13T17:36:49.489Z,2.12
2022-12-13T17:39:21.838Z,2.12
2022-12-13T17:41:55.256Z,2.13
2022-12-13T17:44:27.892Z,2.12
2022-12-13T17:47:01.320Z,2.14
2022-12-13T17:49:33.585Z,2.16
2022-12-13T17:52:05.750Z,2.15
2022-12-13T17:57:18.933Z,2.14
2022-12-13T17:59:51.212Z,2.13
2022-12-13T18:02:23.462Z,2.12
2022-12-13T18:04:55.580Z,2.11
2022-12-13T18:07:27.453Z,2.08
2022-12-13T18:09:59.375Z,2.07
2022-12-13T18:12:33.269Z,2.06
2022-12-13T18:15:05.622Z,2.07
2022-12-13T18:18:09.540Z,2.07
2022-12-13T18:20:12.053Z,2.06
2022-12-13T18:22:49.736Z,2.05
2022-12-13T18:25:18.096Z,2.05
2022-12-13T18:27:50.110Z,2.06
2022-12-13T18:30:22.941Z,2.07
2022-12-13T18:32:55.224Z,2.08
2022-12-13T18:35:27.764Z,2.08
2022-12-13T18:38:00.981Z,2.08
2022-12-13T18:40:33.215Z,2.09
2022-12-13T18:43:05.230Z,2.06
2022-12-13T18:45:37.165Z,2.03
2022-12-13T18:48:09.160Z,2.02
2022-12-13T18:50:47.101Z,2.05
2022-12-13T18:53:15.051Z,2.04
2022-12-13T18:55:47.176Z,2.07
2022-12-13T18:58:19.074Z,2.06
2022-12-13T19:00:51.362Z,2.07
2022-12-13T19:03:26.400Z,2.07
2022-12-13T19:06:00.619Z,2.08
2022-12-13T19:08:36.716Z,2.08
2022-12-13T19:11:08.667Z,2.08
2022-12-13T19:13:41.278Z,2.07
2022-12-13T19:16:16.323Z,2.03
2022-12-13T19:18:48.556Z,2.00
2022-12-13T19:21:22.620Z,1.98
2022-12-13T19:23:58.001Z,1.95
2022-12-13T19:26:30.604Z,1.97
2022-12-13T19:29:03.724Z,1.94
2022-12-13T19:31:35.953Z,1.95
2022-12-13T19:34:07.964Z,1.91
2022-12-13T19:36:39.985Z,1.90
2022-12-13T19:39:14.360Z,1.89
2022-12-13T19:41:45.418Z,1.79
2022-12-13T19:44:17.830Z,1.95
2022-12-13T19:46:50.500Z,1.70
2022-12-13T19:49:22.721Z,1.62
2022-12-13T19:51:55.322Z,1.57
2022-12-13T19:54:28.322Z,1.56
2022-12-13T19:57:06.857Z,1.53
2022-12-13T19:59:33.912Z,1.49
2022-12-13T20:02:05.907Z,1.47
2022-12-13T20:04:37.975Z,1.44
2022-12-13T20:07:09.846Z,1.44
2022-12-13T20:09:42.095Z,1.44
2022-12-13T20:12:13.988Z,1.39
2022-12-13T20:14:46.083Z,1.34
2022-12-13T20:17:18.288Z,1.29
2022-12-13T20:19:50.289Z,1.42
2022-12-13T20:22:23.854Z,1.25
2022-12-13T20:24:55.752Z,1.15
2022-12-13T20:27:28.943Z,1.10
2022-12-13T20:30:01.236Z,1.09
2022-12-13T20:32:34.055Z,1.07
2022-12-13T20:35:06.942Z,1.07
2022-12-13T20:37:39.011Z,1.00
2022-12-13T20:40:11.650Z,0.99
2022-12-13T20:42:43.664Z,0.92
2022-12-13T20:45:15.743Z,0.88
2022-12-13T20:47:47.676Z,0.88
2022-12-13T20:50:19.573Z,0.88
2022-12-13T20:52:53.401Z,0.86
2022-12-13T20:55:26.705Z,0.85
2022-12-13T20:57:58.582Z,0.87
2022-12-13T21:00:31.934Z,0.88
2022-12-13T21:03:04.099Z,0.86
2022-12-13T21:05:36.019Z,0.83
2022-12-13T21:08:25.772Z,0.82
2022-12-13T21:11:03.513Z,0.82
2022-12-13T21:13:32.809Z,0.81
2022-12-13T21:16:08.405Z,0.80
2022-12-13T21:18:40.699Z,0.78
2022-12-13T21:21:13.037Z,0.76
2022-12-13T21:23:44.931Z,0.74
2022-12-13T21:26:16.947Z,0.76
2022-12-13T21:28:49.540Z,0.67
2022-12-13T21:31:24.517Z,0.61
2022-12-13T21:33:58.954Z,0.58
2022-12-13T21:36:33.108Z,0.51
2022-12-13T21:39:13.159Z,0.40
2022-12-13T21:41:46.802Z,0.43
2022-12-13T21:44:19.345Z,0.35
2022-12-13T21:49:25.389Z,0.28
2022-12-13T21:51:57.531Z,0.19
2022-12-13T21:54:29.621Z,0.13
2022-12-13T21:57:19.424Z,0.20
2022-12-13T21:59:51.411Z,0.11
2022-12-13T22:02:23.519Z,0.08
2022-12-13T22:04:59.857Z,0.08
2022-12-13T22:07:34.683Z,0.08
2022-12-13T22:10:07.273Z,0.03
2022-12-13T22:12:41.354Z,-0.02
2022-12-13T22:15:13.833Z,0.08
2022-12-13T22:17:45.767Z,0.14
2022-12-13T22:20:17.849Z,-0.01
2022-12-13T22:22:50.116Z,-0.04
2022-12-13T22:25:22.101Z,-0.03
2022-12-13T22:27:54.194Z,-0.04
2022-12-13T22:30:26.748Z,-0.04
2022-12-13T22:32:58.866Z,-0.04
2022-12-13T22:35:30.825Z,-0.04
2022-12-13T22:38:03.275Z,-0.04
2022-12-13T22:40:38.605Z,-0.03
2022-12-13T22:43:09.719Z,-0.06
2022-12-13T22:45:41.251Z,0.10
2022-12-13T22:48:15.060Z,-0.09
2022-12-13T22:50:46.990Z,-0.03
2022-12-13T22:53:18.997Z,-0.13
2022-12-13T22:55:50.972Z,-0.17
2022-12-13T22:58:22.966Z,-0.22
2022-12-13T23:00:55.091Z,-0.16
2022-12-13T23:03:28.060Z,-0.19
2022-12-13T23:06:08.471Z,-0.26
2022-12-13T23:08:43.641Z,-0.24
2022-12-13T23:11:33.787Z,-0.29
2022-12-13T23:14:08.449Z,-0.33
2022-12-13T23:17:05.070Z,-0.33
2022-12-13T23:19:48.850Z,-0.32
2022-12-13T23:22:11.807Z,-0.22
2022-12-13T23:24:43.848Z,-0.36
2022-12-13T23:27:15.992Z,-0.39
2022-12-13T23:29:48.548Z,-0.40
2022-12-13T23:32:20.871Z,-0.39
2022-12-13T23:34:52.769Z,-0.39
2022-12-13T23:37:25.275Z,-0.34
2022-12-13T23:39:57.265Z,-0.32
2022-12-13T23:42:32.767Z,-0.37
2022-12-13T23:45:04.787Z,-0.44
2022-12-13T23:47:37.446Z,-0.48
2022-12-13T23:50:10.056Z,-0.48
2022-12-13T23:52:41.880Z,-0.56
2022-12-13T23:55:13.844Z,-0.58
2022-12-13T23:57:45.980Z,-0.59
